Time;durP1;ratioP1;P1;durP2;ratioP2;P2;SDS_P1;SDS_P2;PMS_P1;PMS_P2;Temp;Humidity;BMP_temperature;BMP_pressure;BME280_temperature;BME280_humidity;BME280_pressure;Samples;Min_cycle;Max_cycle;Signal;HPM_P1;HPM_P2
2022/04/01 00:02:17;;;;;;;31.83;18.00;;;;;;;;;;5033123;28;20063;-66
2022/04/01 00:04:42;;;;;;;29.75;16.30;;;;;;;;;;5034116;28;20033;-66
2022/04/01 00:07:07;;;;;;;28.50;18.05;;;;;;;;;;5034516;28;20051;-66
2022/04/01 00:09:32;;;;;;;28.02;15.25;;;;;;;;;;5033971;28;20079;-66
2022/04/01 00:11:58;;;;;;;22.88;14.40;;;;;;;;;;5033420;28;20091;-66
2022/04/01 00:14:24;;;;;;;26.05;17.13;;;;;;;;;;5035760;28;20018;-66
2022/04/01 00:16:49;;;;;;;23.40;14.32;;;;;;;;;;5013842;28;20048;-66
2022/04/01 00:19:15;;;;;;;22.25;14.15;;;;;;;;;;5032013;28;20055;-66
2022/04/01 00:21:40;;;;;;;21.83;13.05;;;;;;;;;;5039753;28;20097;-65
2022/04/01 00:24:05;;;;;;;22.85;14.25;;;;;;;;;;5039028;28;20025;-65
2022/04/01 00:26:30;;;;;;;21.13;12.60;;;;;;;;;;5039447;28;20025;-66
2022/04/01 00:28:56;;;;;;;17.77;12.25;;;;;;;;;;5028596;28;20025;-66
2022/04/01 00:31:21;;;;;;;17.30;10.95;;;;;;;;;;5039205;28;20017;-65
2022/04/01 00:33:46;;;;;;;18.52;11.07;;;;;;;;;;5042246;28;20025;-66
2022/04/01 00:36:12;;;;;;;18.48;12.02;;;;;;;;;;5045825;28;20013;-65
2022/04/01 00:38:37;;;;;;;16.48;10.20;;;;;;;;;;5028809;28;20060;-65
2022/04/01 00:41:02;;;;;;;18.08;10.00;;;;;;;;;;5043568;28;20017;-66
2022/04/01 00:43:28;;;;;;;15.65;10.73;;;;;;;;;;5035214;28;20068;-65
2022/04/01 00:45:54;;;;;;;18.52;10.70;;;;;;;;;;5044381;28;20485;-65
2022/04/01 00:48:19;;;;;;;16.98;11.52;;;;;;;;;;5038910;28;20018;-65
2022/04/01 00:50:44;;;;;;;17.95;11.52;;;;;;;;;;5044138;28;20021;-66
2022/04/01 00:53:09;;;;;;;18.50;12.55;;;;;;;;;;5036796;28;20013;-65
2022/04/01 00:55:35;;;;;;;16.83;11.10;;;;;;;;;;5034289;28;20017;-65
2022/04/01 00:58:01;;;;;;;17.27;10.82;;;;;;;;;;5036311;28;20536;-66
2022/04/01 01:00:28;;;;;;;17.92;11.63;;;;;;;;;;5036229;28;20025;-66
2022/04/01 01:02:54;;;;;;;15.93;10.80;;;;;;;;;;5035159;28;20021;-66
2022/04/01 01:05:20;;;;;;;15.23;10.27;;;;;;;;;;5037305;28;20021;-66
2022/04/01 01:07:45;;;;;;;18.17;11.05;;;;;;;;;;5036084;28;20088;-66
2022/04/01 01:10:10;;;;;;;16.30;10.50;;;;;;;;;;5033815;28;20052;-66
2022/04/01 01:12:36;;;;;;;15.43;10.55;;;;;;;;;;5031588;28;20053;-65
2022/04/01 01:15:10;;;;;;;14.68;10.32;;;;;;;;;;5035482;28;20047;-66
2022/04/01 01:17:37;;;;;;;16.08;10.52;;;;;;;;;;5017283;28;20021;-65
2022/04/01 01:20:02;;;;;;;17.23;10.70;;;;;;;;;;5035985;28;20020;-65
2022/04/01 01:22:27;;;;;;;13.25;9.20;;;;;;;;;;5034996;28;20023;-66
2022/04/01 01:24:53;;;;;;;14.90;9.85;;;;;;;;;;5038919;28;20045;-65
2022/04/01 01:27:18;;;;;;;16.33;10.55;;;;;;;;;;5032230;28;20400;-65
2022/04/01 01:29:45;;;;;;;14.02;10.07;;;;;;;;;;5038107;28;20034;-66
2022/04/01 01:32:12;;;;;;;14.88;10.90;;;;;;;;;;5037014;28;20017;-66
2022/04/01 01:34:39;;;;;;;16.50;10.82;;;;;;;;;;5034208;28;20418;-65
2022/04/01 01:37:05;;;;;;;14.27;10.63;;;;;;;;;;5033033;28;20083;-66
2022/04/01 01:39:31;;;;;;;16.30;10.82;;;;;;;;;;5036460;28;20032;-65
2022/04/01 01:41:56;;;;;;;15.80;10.27;;;;;;;;;;5035853;28;20025;-66
2022/04/01 01:44:22;;;;;;;14.77;9.95;;;;;;;;;;5035391;28;20550;-66
2022/04/01 01:46:48;;;;;;;17.30;11.20;;;;;;;;;;5033233;28;20043;-66
2022/04/01 01:49:14;;;;;;;13.55;10.30;;;;;;;;;;5033406;28;20466;-65
2022/04/01 01:57:07;;;;;;;14.88;9.63;;;;;;;;;;5030799;28;20087;-66
2022/04/01 01:59:33;;;;;;;16.27;10.52;;;;;;;;;;5032459;28;20486;-66
2022/04/01 02:02:00;;;;;;;13.98;9.70;;;;;;;;;;5016078;28;20108;-65
2022/04/01 02:04:25;;;;;;;14.30;9.27;;;;;;;;;;5031261;28;20053;-66
2022/04/01 02:06:50;;;;;;;14.27;9.52;;;;;;;;;;5027518;28;20083;-65
2022/04/01 02:09:16;;;;;;;16.05;10.68;;;;;;;;;;5019292;23;20041;-65
2022/04/01 02:11:41;;;;;;;14.13;10.63;;;;;;;;;;5016219;28;20105;-65
2022/04/01 02:14:06;;;;;;;16.45;9.77;;;;;;;;;;5020271;28;20799;-65
2022/04/01 02:16:31;;;;;;;14.15;9.73;;;;;;;;;;5015591;28;20022;-65
2022/04/01 02:18:57;;;;;;;15.25;10.75;;;;;;;;;;5016296;28;20471;-65
2022/04/01 02:21:22;;;;;;;17.73;10.85;;;;;;;;;;5015192;28;20018;-65
2022/04/01 02:23:48;;;;;;;16.20;10.85;;;;;;;;;;5017914;28;20020;-65
2022/04/01 02:26:14;;;;;;;15.35;10.30;;;;;;;;;;5018499;28;20025;-64
2022/04/01 02:28:40;;;;;;;20.90;11.35;;;;;;;;;;5017294;28;20209;-65
2022/04/01 02:31:05;;;;;;;16.08;10.55;;;;;;;;;;5022559;28;20467;-64
2022/04/01 02:33:31;;;;;;;17.38;10.95;;;;;;;;;;5024110;28;20022;-64
2022/04/01 02:35:57;;;;;;;19.45;10.68;;;;;;;;;;5015515;28;20028;-65
2022/04/01 02:38:24;;;;;;;15.70;10.15;;;;;;;;;;5019182;28;20040;-65
2022/04/01 02:40:49;;;;;;;16.98;10.82;;;;;;;;;;5016647;28;20020;-65
2022/04/01 02:43:14;;;;;;;14.07;9.73;;;;;;;;;;5015592;28;20585;-65
2022/04/01 02:45:40;;;;;;;16.67;9.38;;;;;;;;;;5006599;28;20041;-64
2022/04/01 02:48:05;;;;;;;18.35;11.35;;;;;;;;;;5010918;28;20031;-65
2022/04/01 02:50:30;;;;;;;16.15;10.02;;;;;;;;;;5010411;28;20026;-65
2022/04/01 02:52:56;;;;;;;15.77;9.20;;;;;;;;;;5016773;28;20037;-65
2022/04/01 02:55:21;;;;;;;17.02;10.20;;;;;;;;;;5010504;28;20021;-65
2022/04/01 02:57:47;;;;;;;17.35;9.68;;;;;;;;;;5014040;28;20025;-64
2022/04/01 03:00:21;;;;;;;15.27;9.55;;;;;;;;;;5013079;28;20025;-64
2022/04/01 03:02:47;;;;;;;16.27;8.88;;;;;;;;;;5017556;28;20022;-65
2022/04/01 03:05:13;;;;;;;16.38;8.57;;;;;;;;;;5013618;28;20568;-65
2022/04/01 03:07:38;;;;;;;13.77;9.05;;;;;;;;;;5014764;28;20053;-64
2022/04/01 03:10:04;;;;;;;14.32;9.05;;;;;;;;;;5016716;28;20095;-65
2022/04/01 03:12:30;;;;;;;18.50;9.35;;;;;;;;;;5018235;28;20021;-65
2022/04/01 03:14:55;;;;;;;14.48;8.65;;;;;;;;;;5013066;28;20377;-64
2022/04/01 03:17:21;;;;;;;14.52;8.75;;;;;;;;;;5015400;28;20053;-65
2022/04/01 03:19:46;;;;;;;15.80;8.50;;;;;;;;;;5015981;28;20390;-65
2022/04/01 03:22:11;;;;;;;16.58;8.40;;;;;;;;;;5022094;28;20021;-64
2022/04/01 03:24:36;;;;;;;13.60;8.15;;;;;;;;;;5021815;28;20025;-65
2022/04/01 03:27:02;;;;;;;17.60;9.52;;;;;;;;;;5019844;28;20098;-64
2022/04/01 03:29:28;;;;;;;16.55;9.13;;;;;;;;;;5018974;28;20021;-65
2022/04/01 03:31:54;;;;;;;16.98;8.18;;;;;;;;;;5021305;28;20024;-64
2022/04/01 03:34:19;;;;;;;15.05;8.73;;;;;;;;;;5014844;28;20477;-65
2022/04/01 03:36:44;;;;;;;14.55;8.82;;;;;;;;;;5013441;28;20022;-65
2022/04/01 03:39:10;;;;;;;12.38;7.75;;;;;;;;;;5012955;28;20030;-65
2022/04/01 03:41:35;;;;;;;15.70;8.15;;;;;;;;;;5017764;28;20025;-65
2022/04/01 03:44:01;;;;;;;12.50;8.50;;;;;;;;;;5025004;28;20021;-65
2022/04/01 03:46:27;;;;;;;13.80;8.35;;;;;;;;;;5019528;28;20100;-65
2022/04/01 03:49:03;;;;;;;17.45;10.07;;;;;;;;;;5021803;28;20017;-65
2022/04/01 03:51:29;;;;;;;12.65;8.75;;;;;;;;;;5018993;28;20022;-65
2022/04/01 03:53:57;;;;;;;15.15;9.07;;;;;;;;;;5015005;28;20057;-65
2022/04/01 03:56:23;;;;;;;15.18;8.55;;;;;;;;;;5023820;28;20065;-65
2022/04/01 03:58:49;;;;;;;13.80;8.88;;;;;;;;;;5014236;28;20457;-65
2022/04/01 04:01:14;;;;;;;12.60;8.32;;;;;;;;;;5003726;28;20038;-65
2022/04/01 04:03:40;;;;;;;15.77;8.52;;;;;;;;;;5021895;28;20041;-65
2022/04/01 04:06:09;;;;;;;12.93;8.15;;;;;;;;;;5022578;28;20036;-65
2022/04/01 04:08:36;;;;;;;14.07;9.02;;;;;;;;;;5005966;28;20104;-65
2022/04/01 04:11:01;;;;;;;15.55;9.48;;;;;;;;;;5017016;28;20018;-65
2022/04/01 04:13:26;;;;;;;14.13;8.23;;;;;;;;;;5018108;28;20037;-65
2022/04/01 04:16:04;;;;;;;13.30;8.82;;;;;;;;;;5023682;28;20293;-65
2022/04/01 04:18:32;;;;;;;13.35;8.20;;;;;;;;;;5022305;28;20108;-65
2022/04/01 04:21:04;;;;;;;13.13;8.32;;;;;;;;;;5022564;28;20033;-65
2022/04/01 04:23:33;;;;;;;13.77;8.57;;;;;;;;;;5020956;28;20478;-65
2022/04/01 04:26:01;;;;;;;13.57;8.80;;;;;;;;;;5015354;28;20109;-65
2022/04/01 04:28:27;;;;;;;15.65;8.45;;;;;;;;;;5011838;28;20026;-65
2022/04/01 04:30:53;;;;;;;12.38;7.65;;;;;;;;;;5015343;28;20422;-65
2022/04/01 04:33:21;;;;;;;13.80;8.38;;;;;;;;;;5022810;28;20075;-65
2022/04/01 04:35:48;;;;;;;14.60;9.05;;;;;;;;;;5019564;28;20421;-65
2022/04/01 04:38:14;;;;;;;15.40;7.90;;;;;;;;;;5016859;28;20450;-65
2022/04/01 04:40:41;;;;;;;16.05;7.40;;;;;;;;;;5019616;28;20045;-64
2022/04/01 04:43:07;;;;;;;14.63;6.90;;;;;;;;;;4996753;28;20037;-65
2022/04/01 04:45:32;;;;;;;14.35;7.93;;;;;;;;;;5017653;28;20022;-65
2022/04/01 04:47:58;;;;;;;14.63;7.15;;;;;;;;;;5014169;28;20025;-65
2022/04/01 04:50:23;;;;;;;14.80;6.88;;;;;;;;;;5015186;28;20033;-65
2022/04/01 04:52:50;;;;;;;21.98;7.72;;;;;;;;;;5019938;28;20429;-64
2022/04/01 04:55:18;;;;;;;14.65;8.05;;;;;;;;;;5012073;28;20028;-65
2022/04/01 04:57:45;;;;;;;17.50;8.43;;;;;;;;;;5015895;28;20057;-64
2022/04/01 05:00:10;;;;;;;10.25;6.78;;;;;;;;;;5013099;28;20387;-65
2022/04/01 05:02:53;;;;;;;14.25;6.25;;;;;;;;;;5013693;28;20026;-65
2022/04/01 05:05:26;;;;;;;12.30;7.57;;;;;;;;;;5022479;28;20022;-65
2022/04/01 05:07:51;;;;;;;12.00;7.20;;;;;;;;;;5016077;28;20062;-65
2022/04/01 05:10:22;;;;;;;13.82;7.22;;;;;;;;;;5010558;28;20423;-65
2022/04/01 05:12:53;;;;;;;11.98;7.45;;;;;;;;;;5013461;28;20327;-65
2022/04/01 05:15:19;;;;;;;10.27;6.40;;;;;;;;;;5015251;28;20018;-65
2022/04/01 05:17:53;;;;;;;11.70;7.05;;;;;;;;;;5014254;28;20432;-64
2022/04/01 05:20:24;;;;;;;15.77;6.78;;;;;;;;;;5006776;28;20325;-65
2022/04/01 05:22:49;;;;;;;12.57;7.03;;;;;;;;;;5015411;28;20105;-65
2022/04/01 05:25:19;;;;;;;11.20;6.47;;;;;;;;;;5020382;28;20037;-65
2022/04/01 05:27:45;;;;;;;;;;;;;;;;;;5016934;28;20021;-65
2022/04/01 05:30:16;;;;;;;11.73;6.65;;;;;;;;;;5015907;28;19918;-65
2022/04/01 05:32:52;;;;;;;12.90;7.25;;;;;;;;;;5005135;28;20033;-64
2022/04/01 05:35:19;;;;;;;9.63;6.70;;;;;;;;;;5017838;28;20022;-65
2022/04/01 05:37:44;;;;;;;12.82;6.10;;;;;;;;;;5019024;28;20036;-64
2022/04/01 05:40:10;;;;;;;10.50;5.85;;;;;;;;;;5020974;28;20025;-65
2022/04/01 05:42:36;;;;;;;9.18;6.10;;;;;;;;;;5009264;28;20043;-65
2022/04/01 05:45:01;;;;;;;13.45;6.53;;;;;;;;;;5012906;28;20022;-65
2022/04/01 05:47:30;;;;;;;8.80;6.00;;;;;;;;;;5010740;28;20490;-64
2022/04/01 05:49:56;;;;;;;10.07;5.93;;;;;;;;;;5012878;28;20021;-65
2022/04/01 05:52:22;;;;;;;9.65;5.95;;;;;;;;;;5014827;28;20025;-64
2022/04/01 05:54:48;;;;;;;9.90;6.35;;;;;;;;;;5013465;28;20028;-64
2022/04/01 05:57:17;;;;;;;7.78;5.60;;;;;;;;;;5008845;28;20366;-65
2022/04/01 05:59:42;;;;;;;10.60;6.15;;;;;;;;;;5012640;28;20079;-65
2022/04/01 06:02:26;;;;;;;9.15;6.03;;;;;;;;;;5009295;28;20456;-65
2022/04/01 06:05:09;;;;;;;9.95;6.22;;;;;;;;;;5011157;28;20017;-65
2022/04/01 06:07:38;;;;;;;12.38;6.80;;;;;;;;;;5016025;28;20053;-65
2022/04/01 06:10:11;;;;;;;10.27;6.35;;;;;;;;;;5021450;28;20013;-65
2022/04/01 06:12:55;;;;;;;9.85;5.60;;;;;;;;;;5016198;28;20022;-65
2022/04/01 06:15:23;;;;;;;10.10;5.97;;;;;;;;;;5020718;28;20018;-65
2022/04/01 06:18:04;;;;;;;9.40;5.38;;;;;;;;;;5019659;28;20017;-64
2022/04/01 06:20:31;;;;;;;10.75;5.95;;;;;;;;;;5016292;28;20103;-65
2022/04/01 06:23:06;;;;;;;9.73;6.03;;;;;;;;;;5012199;28;20022;-65
2022/04/01 06:25:34;;;;;;;8.40;5.22;;;;;;;;;;5014638;28;20025;-64
2022/04/01 06:28:10;;;;;;;9.90;5.90;;;;;;;;;;5016132;28;20505;-65
2022/04/01 06:30:36;;;;;;;12.65;5.35;;;;;;;;;;5016536;28;20021;-65
2022/04/01 06:33:14;;;;;;;21.73;5.95;;;;;;;;;;5015003;28;20397;-65
2022/04/01 06:35:57;;;;;;;12.02;5.90;;;;;;;;;;5019813;28;20432;-64
2022/04/01 06:38:38;;;;;;;11.75;6.20;;;;;;;;;;5013056;28;20044;-65
2022/04/01 06:41:06;;;;;;;9.10;6.30;;;;;;;;;;5018131;28;20105;-65
2022/04/01 06:43:31;;;;;;;10.35;6.65;;;;;;;;;;5017677;28;20033;-65
2022/04/01 06:45:56;;;;;;;10.40;5.32;;;;;;;;;;5017909;28;20022;-65
2022/04/01 06:48:22;;;;;;;8.77;5.88;;;;;;;;;;5020189;28;20096;-65
2022/04/01 06:50:49;;;;;;;8.80;6.13;;;;;;;;;;5020235;28;20014;-65
2022/04/01 06:53:18;;;;;;;7.40;5.13;;;;;;;;;;5018425;28;20029;-65
2022/04/01 06:55:43;;;;;;;10.60;5.47;;;;;;;;;;5014361;28;20029;-65
2022/04/01 06:58:11;;;;;;;11.02;5.15;;;;;;;;;;5016204;28;20402;-65
2022/04/01 07:00:37;;;;;;;9.15;5.05;;;;;;;;;;5016204;28;20018;-65
2022/04/01 07:03:02;;;;;;;9.18;4.93;;;;;;;;;;5019405;28;20026;-65
2022/04/01 07:05:28;;;;;;;6.97;4.43;;;;;;;;;;5022740;28;20512;-64
2022/04/01 07:07:53;;;;;;;9.40;5.13;;;;;;;;;;5016243;28;20026;-64
2022/04/01 07:10:19;;;;;;;7.28;4.78;;;;;;;;;;5019465;28;20026;-65
2022/04/01 07:12:44;;;;;;;6.85;4.65;;;;;;;;;;5013864;28;20094;-65
2022/04/01 07:15:10;;;;;;;7.85;4.95;;;;;;;;;;5012410;28;20097;-64
2022/04/01 07:17:35;;;;;;;6.78;4.32;;;;;;;;;;5020862;28;20053;-65
2022/04/01 07:20:01;;;;;;;9.32;5.07;;;;;;;;;;5024556;28;20052;-65
2022/04/01 07:22:26;;;;;;;10.68;5.30;;;;;;;;;;5016716;28;20033;-64
2022/04/01 07:24:52;;;;;;;6.68;4.60;;;;;;;;;;5013274;28;20018;-65
2022/04/01 07:27:17;;;;;;;6.95;4.50;;;;;;;;;;5024793;28;20033;-65
2022/04/01 07:29:42;;;;;;;6.53;4.00;;;;;;;;;;5014527;28;20029;-65
2022/04/01 07:34:51;;;;;;;6.40;4.20;;;;;;;;;;5016912;28;20025;-65
2022/04/01 07:37:21;;;;;;;5.80;3.97;;;;;;;;;;5013911;28;20030;-65
2022/04/01 07:39:47;;;;;;;9.85;4.55;;;;;;;;;;5019172;28;20021;-65
2022/04/01 07:42:12;;;;;;;8.65;5.15;;;;;;;;;;5022266;28;20030;-65
2022/04/01 07:44:37;;;;;;;7.72;4.43;;;;;;;;;;5017937;28;20022;-65
2022/04/01 07:47:03;;;;;;;8.05;4.80;;;;;;;;;;5002779;28;20079;-64
2022/04/01 07:49:28;;;;;;;7.40;4.28;;;;;;;;;;5016868;28;20022;-64
2022/04/01 07:51:53;;;;;;;5.28;3.85;;;;;;;;;;5018432;28;20466;-64
2022/04/01 07:54:18;;;;;;;6.47;4.22;;;;;;;;;;5021245;28;20382;-65
2022/04/01 07:56:43;;;;;;;6.10;3.92;;;;;;;;;;5011699;28;20022;-64
2022/04/01 07:59:09;;;;;;;8.18;4.22;;;;;;;;;;5016910;28;20484;-64
2022/04/01 08:01:35;;;;;;;6.60;4.57;;;;;;;;;;5023325;28;20096;-64
2022/04/01 08:04:00;;;;;;;10.43;4.30;;;;;;;;;;5023013;28;20022;-64
2022/04/01 08:06:25;;;;;;;6.18;4.22;;;;;;;;;;5018184;28;20018;-64
2022/04/01 08:08:50;;;;;;;7.10;4.47;;;;;;;;;;5016739;28;20030;-64
2022/04/01 08:11:16;;;;;;;10.38;4.18;;;;;;;;;;5023076;28;20026;-65
2022/04/01 08:13:41;;;;;;;14.27;4.32;;;;;;;;;;5013537;28;20088;-64
2022/04/01 08:16:06;;;;;;;5.70;3.90;;;;;;;;;;5016498;28;20120;-64
2022/04/01 08:18:31;;;;;;;6.45;4.05;;;;;;;;;;5023265;28;20026;-64
2022/04/01 08:20:56;;;;;;;6.32;3.80;;;;;;;;;;5022016;28;20101;-63
2022/04/01 08:23:22;;;;;;;6.40;4.10;;;;;;;;;;5016408;28;20032;-64
2022/04/01 08:25:47;;;;;;;7.10;4.38;;;;;;;;;;5020113;28;20092;-64
2022/04/01 08:28:12;;;;;;;7.25;4.50;;;;;;;;;;5016170;28;20056;-64
2022/04/01 08:30:39;;;;;;;10.48;4.38;;;;;;;;;;5017997;28;21358;-64
2022/04/01 08:33:04;;;;;;;5.45;4.03;;;;;;;;;;5022479;28;20681;-64
2022/04/01 08:35:29;;;;;;;5.50;4.22;;;;;;;;;;5017880;28;20452;-64
2022/04/01 08:37:57;;;;;;;7.15;4.30;;;;;;;;;;5024380;28;20048;-64
2022/04/01 08:40:23;;;;;;;7.05;4.30;;;;;;;;;;5025565;28;20021;-64
2022/04/01 08:42:48;;;;;;;7.43;4.68;;;;;;;;;;5019029;28;20068;-64
2022/04/01 08:45:16;;;;;;;6.38;4.32;;;;;;;;;;5023400;28;20545;-64
2022/04/01 08:47:41;;;;;;;7.55;4.20;;;;;;;;;;5020611;28;20048;-64
2022/04/01 08:50:07;;;;;;;6.95;4.72;;;;;;;;;;5019417;28;20053;-65
2022/04/01 08:52:32;;;;;;;7.93;4.88;;;;;;;;;;5022537;28;20025;-64
2022/04/01 08:55:04;;;;;;;8.13;5.05;;;;;;;;;;5020298;28;20018;-65
2022/04/01 08:57:36;;;;;;;9.80;6.85;;;;;;;;;;5013199;28;20053;-65
2022/04/01 09:00:01;;;;;;;8.40;5.28;;;;;;;;;;5023876;28;20559;-64
2022/04/01 09:02:27;;;;;;;6.88;4.10;;;;;;;;;;5019877;28;20117;-64
2022/04/01 09:05:05;;;;;;;7.43;4.78;;;;;;;;;;5015274;28;20543;-64
2022/04/01 09:07:30;;;;;;;8.35;5.15;;;;;;;;;;5021032;28;20033;-64
2022/04/01 09:10:03;;;;;;;10.68;5.18;;;;;;;;;;5016131;28;20014;-64
2022/04/01 09:12:29;;;;;;;9.52;5.10;;;;;;;;;;5023086;28;20486;-65
2022/04/01 09:14:54;;;;;;;8.80;4.68;;;;;;;;;;5019115;28;20032;-65
2022/04/01 09:17:20;;;;;;;6.97;4.93;;;;;;;;;;5013912;28;20029;-65
2022/04/01 09:19:45;;;;;;;10.45;5.68;;;;;;;;;;5012920;28;20057;-64
2022/04/01 09:22:15;;;;;;;8.07;4.90;;;;;;;;;;5013665;28;20017;-64
2022/04/01 09:24:51;;;;;;;12.57;5.50;;;;;;;;;;5019316;28;20032;-65
2022/04/01 09:27:16;;;;;;;9.60;4.82;;;;;;;;;;5016669;28;20030;-65
2022/04/01 09:29:42;;;;;;;6.78;4.63;;;;;;;;;;5019984;28;20025;-65
2022/04/01 09:32:08;;;;;;;8.15;4.40;;;;;;;;;;5017611;28;20598;-65
2022/04/01 09:34:37;;;;;;;10.52;4.90;;;;;;;;;;5019784;28;20018;-65
2022/04/01 09:37:02;;;;;;;5.68;4.00;;;;;;;;;;5020834;28;20022;-65
2022/04/01 09:39:28;;;;;;;6.20;4.55;;;;;;;;;;5011860;28;20018;-65
2022/04/01 09:41:55;;;;;;;8.70;4.30;;;;;;;;;;5005571;28;20025;-65
2022/04/01 09:44:21;;;;;;;8.40;4.60;;;;;;;;;;5016241;28;20688;-65
2022/04/01 09:46:47;;;;;;;7.75;4.38;;;;;;;;;;5014559;28;20113;-65
2022/04/01 09:49:14;;;;;;;9.70;4.13;;;;;;;;;;5011583;28;20269;-64
2022/04/01 09:51:40;;;;;;;8.45;4.40;;;;;;;;;;5016110;28;20064;-65
2022/04/01 09:54:06;;;;;;;8.82;4.32;;;;;;;;;;4995050;28;20009;-65
2022/04/01 09:56:45;;;;;;;6.82;4.32;;;;;;;;;;5003228;28;20032;-65
2022/04/01 09:59:11;;;;;;;9.25;4.00;;;;;;;;;;5012093;28;20021;-65
2022/04/01 10:01:37;;;;;;;7.32;4.47;;;;;;;;;;5009780;28;20022;-65
2022/04/01 10:04:03;;;;;;;8.52;5.05;;;;;;;;;;5019074;28;20417;-65
2022/04/01 10:06:30;;;;;;;17.27;5.60;;;;;;;;;;5018586;28;20087;-65
2022/04/01 10:08:56;;;;;;;26.73;6.18;;;;;;;;;;5016541;28;20033;-65
2022/04/01 10:11:23;;;;;;;6.45;4.13;;;;;;;;;;5013778;28;20029;-65
2022/04/01 10:13:49;;;;;;;17.70;4.40;;;;;;;;;;5013769;28;20022;-65
2022/04/01 10:16:15;;;;;;;6.38;4.53;;;;;;;;;;5012236;28;20352;-65
2022/04/01 10:18:41;;;;;;;7.28;4.65;;;;;;;;;;5016414;28;20499;-65
2022/04/01 10:21:07;;;;;;;32.92;5.25;;;;;;;;;;5019008;28;20018;-65
2022/04/01 10:23:34;;;;;;;8.77;4.43;;;;;;;;;;5018680;28;20027;-65
2022/04/01 10:26:02;;;;;;;6.75;4.00;;;;;;;;;;5017129;28;20739;-65
2022/04/01 10:28:27;;;;;;;10.90;4.38;;;;;;;;;;5019629;28;20521;-65
2022/04/01 10:30:54;;;;;;;9.05;3.97;;;;;;;;;;5018782;28;20015;-65
2022/04/01 10:33:38;;;;;;;4.88;2.97;;;;;;;;;;5015625;28;21420;-65
2022/04/01 10:36:24;;;;;;;7.63;4.18;;;;;;;;;;5021946;28;20047;-65
2022/04/01 10:38:58;;;;;;;6.93;3.72;;;;;;;;;;5014598;28;20073;-65
2022/04/01 10:41:23;;;;;;;6.45;4.25;;;;;;;;;;5017497;28;20026;-65
2022/04/01 10:43:52;;;;;;;8.30;3.72;;;;;;;;;;5021194;28;20021;-65
2022/04/01 10:46:19;;;;;;;6.22;3.75;;;;;;;;;;5012432;28;20029;-65
2022/04/01 10:52:06;;;;;;;4.18;3.35;;;;;;;;;;5011651;28;20107;-65
2022/04/01 10:54:31;;;;;;;7.15;3.72;;;;;;;;;;5011863;28;20033;-65
2022/04/01 10:57:00;;;;;;;5.65;3.65;;;;;;;;;;5012896;28;20517;-65
2022/04/01 10:59:26;;;;;;;7.20;3.97;;;;;;;;;;5017821;28;20026;-65
2022/04/01 11:01:51;;;;;;;5.45;3.95;;;;;;;;;;5014483;28;20025;-65
2022/04/01 11:04:16;;;;;;;8.60;3.60;;;;;;;;;;5014283;28;20376;-65
2022/04/01 11:06:52;;;;;;;5.35;3.03;;;;;;;;;;5016010;28;20276;-65
2022/04/01 11:09:36;;;;;;;5.38;3.22;;;;;;;;;;5007752;28;20498;-65
2022/04/01 11:12:19;;;;;;;6.05;3.25;;;;;;;;;;5012678;28;20541;-65
2022/04/01 11:14:53;;;;;;;6.03;2.95;;;;;;;;;;5016944;28;20030;-65
2022/04/01 11:17:18;;;;;;;8.00;3.65;;;;;;;;;;5014203;28;20021;-65
2022/04/01 11:20:02;;;;;;;6.28;3.03;;;;;;;;;;5014414;28;20052;-65
2022/04/01 11:22:34;;;;;;;5.25;2.90;;;;;;;;;;5014665;28;20192;-65
2022/04/01 11:24:59;;;;;;;7.10;3.10;;;;;;;;;;5022000;28;20083;-65
2022/04/01 11:27:25;;;;;;;4.10;2.80;;;;;;;;;;5015860;28;20016;-65
2022/04/01 11:30:07;;;;;;;4.32;3.00;;;;;;;;;;5016606;28;20397;-65
2022/04/01 11:32:36;;;;;;;6.28;3.75;;;;;;;;;;5016440;28;20018;-66
2022/04/01 11:35:02;;;;;;;4.68;3.25;;;;;;;;;;5018445;28;20160;-65
2022/04/01 11:37:28;;;;;;;11.48;3.10;;;;;;;;;;5020708;28;20017;-65
2022/04/01 11:40:05;;;;;;;4.35;2.50;;;;;;;;;;5016941;28;20049;-65
2022/04/01 11:42:30;;;;;;;31.83;4.65;;;;;;;;;;5020336;28;20493;-65
2022/04/01 11:44:58;;;;;;;3.67;2.63;;;;;;;;;;5015445;28;20073;-65
2022/04/01 11:47:32;;;;;;;4.88;2.78;;;;;;;;;;5015929;28;20025;-65
2022/04/01 11:50:11;;;;;;;7.07;2.80;;;;;;;;;;5020567;28;20285;-65
2022/04/01 11:52:40;;;;;;;4.90;3.08;;;;;;;;;;5015729;28;20028;-65
2022/04/01 11:55:26;;;;;;;4.82;2.63;;;;;;;;;;5021950;28;20068;-65
2022/04/01 11:57:55;;;;;;;10.68;3.22;;;;;;;;;;5019098;28;20132;-65
2022/04/01 12:00:22;;;;;;;7.97;3.55;;;;;;;;;;5018288;28;20051;-65
2022/04/01 12:02:48;;;;;;;6.38;4.05;;;;;;;;;;5019934;28;20108;-65
2022/04/01 12:05:14;;;;;;;16.35;3.83;;;;;;;;;;5012948;28;20022;-65
2022/04/01 12:10:32;;;;;;;10.90;4.00;;;;;;;;;;5014696;28;20021;-65
2022/04/01 12:13:00;;;;;;;7.25;4.18;;;;;;;;;;5015113;28;20052;-65
2022/04/01 12:15:29;;;;;;;8.35;4.10;;;;;;;;;;5020787;28;20014;-65
2022/04/01 12:17:54;;;;;;;5.00;3.42;;;;;;;;;;5024117;28;20068;-65
2022/04/01 12:20:20;;;;;;;18.70;4.80;;;;;;;;;;5012872;28;20493;-65
2022/04/01 12:22:46;;;;;;;8.75;3.33;;;;;;;;;;5020655;28;20029;-65
2022/04/01 12:25:11;;;;;;;13.70;4.90;;;;;;;;;;5022851;28;20398;-65
2022/04/01 12:27:51;;;;;;;13.20;3.88;;;;;;;;;;5015360;28;20721;-65
2022/04/01 12:30:30;;;;;;;9.18;3.78;;;;;;;;;;5021651;28;20046;-65
2022/04/01 12:32:56;;;;;;;9.57;4.03;;;;;;;;;;5019098;28;20037;-66
2022/04/01 12:35:24;;;;;;;20.40;5.35;;;;;;;;;;5017288;28;20010;-65
2022/04/01 12:38:06;;;;;;;6.45;3.95;;;;;;;;;;5015222;28;20029;-65
2022/04/01 12:40:47;;;;;;;20.83;5.82;;;;;;;;;;5019453;28;20022;-65
2022/04/01 12:43:32;;;;;;;26.63;5.45;;;;;;;;;;5015201;28;20025;-65
2022/04/01 12:45:59;;;;;;;14.98;4.00;;;;;;;;;;4999388;28;20025;-65
2022/04/01 12:48:24;;;;;;;5.43;3.13;;;;;;;;;;5011119;28;20029;-65
2022/04/01 12:50:49;;;;;;;7.95;4.40;;;;;;;;;;5011228;28;20034;-65
2022/04/01 12:53:15;;;;;;;5.32;3.50;;;;;;;;;;5010604;28;20378;-65
2022/04/01 12:55:40;;;;;;;8.38;4.15;;;;;;;;;;5016738;28;20522;-65
2022/04/01 12:58:12;;;;;;;8.30;4.53;;;;;;;;;;5021186;28;20044;-65
2022/04/01 13:00:37;;;;;;;12.07;4.22;;;;;;;;;;5023905;28;20023;-66
2022/04/01 13:03:02;;;;;;;9.23;3.65;;;;;;;;;;5018671;28;20401;-65
2022/04/01 13:05:27;;;;;;;6.72;3.45;;;;;;;;;;5015103;28;20017;-65
2022/04/01 13:07:53;;;;;;;11.65;4.18;;;;;;;;;;5020695;28;20088;-65
2022/04/01 13:10:20;;;;;;;26.88;5.55;;;;;;;;;;5021370;28;20018;-65
2022/04/01 13:12:47;;;;;;;10.50;4.07;;;;;;;;;;5022050;28;20422;-65
2022/04/01 13:15:17;;;;;;;12.20;5.88;;;;;;;;;;5013141;28;20018;-65
2022/04/01 13:17:52;;;;;;;9.93;4.60;;;;;;;;;;5018286;28;20060;-65
2022/04/01 13:20:21;;;;;;;27.77;7.22;;;;;;;;;;5001280;28;20092;-65
2022/04/01 13:22:47;;;;;;;9.73;4.60;;;;;;;;;;5024110;28;20120;-65
2022/04/01 13:25:15;;;;;;;13.27;5.13;;;;;;;;;;5017288;28;20093;-65
2022/04/01 13:27:44;;;;;;;12.23;4.63;;;;;;;;;;5018742;28;20034;-65
2022/04/01 13:30:09;;;;;;;7.75;4.30;;;;;;;;;;5017881;28;20506;-66
2022/04/01 13:32:35;;;;;;;14.25;4.85;;;;;;;;;;5016138;28;20037;-66
2022/04/01 13:35:00;;;;;;;7.80;4.05;;;;;;;;;;5022084;28;20040;-66
2022/04/01 13:37:26;;;;;;;8.02;5.05;;;;;;;;;;5023330;28;20450;-65
2022/04/01 13:39:51;;;;;;;8.88;4.68;;;;;;;;;;5015736;28;20022;-65
2022/04/01 13:42:16;;;;;;;8.48;4.38;;;;;;;;;;5016022;28;20121;-66
2022/04/01 13:44:41;;;;;;;11.82;4.95;;;;;;;;;;5019862;28;20052;-65
2022/04/01 13:47:07;;;;;;;8.60;4.20;;;;;;;;;;5016569;28;20064;-65
2022/04/01 13:49:32;;;;;;;5.90;4.00;;;;;;;;;;5020438;28;20021;-65
2022/04/01 13:51:58;;;;;;;8.65;4.63;;;;;;;;;;5018304;28;20018;-65
2022/04/01 13:54:24;;;;;;;8.10;4.78;;;;;;;;;;5012598;28;20069;-65
2022/04/01 13:56:50;;;;;;;7.88;4.18;;;;;;;;;;5009888;28;20022;-65
2022/04/01 13:59:16;;;;;;;7.75;4.25;;;;;;;;;;5016982;28;20471;-65
2022/04/01 14:01:41;;;;;;;8.55;4.97;;;;;;;;;;5013186;28;20072;-65
2022/04/01 14:04:07;;;;;;;5.82;3.78;;;;;;;;;;5021440;28;20026;-65
2022/04/01 14:06:33;;;;;;;6.25;3.80;;;;;;;;;;5010660;28;20022;-65
2022/04/01 14:08:59;;;;;;;7.78;4.70;;;;;;;;;;5039402;23;20045;-66
2022/04/01 14:11:24;;;;;;;8.70;4.90;;;;;;;;;;5035959;28;20088;-66
2022/04/01 14:13:50;;;;;;;7.28;4.50;;;;;;;;;;5035228;28;20040;-66
2022/04/01 14:16:15;;;;;;;9.02;5.25;;;;;;;;;;5014154;28;20021;-67
2022/04/01 14:18:40;;;;;;;11.40;5.88;;;;;;;;;;5002551;28;20017;-66
2022/04/01 14:21:06;;;;;;;9.23;5.10;;;;;;;;;;5018836;28;20025;-66
2022/04/01 14:23:32;;;;;;;9.20;5.45;;;;;;;;;;5009503;28;20073;-66
2022/04/01 14:26:04;;;;;;;9.07;5.65;;;;;;;;;;5012672;28;20088;-66
2022/04/01 14:28:31;;;;;;;10.60;5.70;;;;;;;;;;5015637;28;20053;-66
2022/04/01 14:30:56;;;;;;;9.25;5.32;;;;;;;;;;5015955;28;20496;-65
2022/04/01 14:33:21;;;;;;;8.50;5.35;;;;;;;;;;4996249;28;20025;-66
2022/04/01 14:35:47;;;;;;;8.95;5.88;;;;;;;;;;5014878;28;20021;-66
2022/04/01 14:38:12;;;;;;;9.93;6.22;;;;;;;;;;5014179;28;20053;-66
2022/04/01 14:40:37;;;;;;;7.85;4.90;;;;;;;;;;4988743;28;20498;-67
2022/04/01 14:43:04;;;;;;;12.68;5.32;;;;;;;;;;5016746;28;20040;-67
2022/04/01 14:45:30;;;;;;;9.68;5.55;;;;;;;;;;5016041;28;20024;-67
2022/04/01 14:47:55;;;;;;;9.80;5.00;;;;;;;;;;5011978;28;20022;-68
2022/04/01 14:50:21;;;;;;;11.40;5.63;;;;;;;;;;5013272;28;20026;-67